Nearby METAR Reports

 

CWGT - Sisters Island (Auto)
Distance from station: NE 39km
Updated: 2019-04-18 17:00

 Wind from ESE
Wind: ESE 50 km/h, Gust: 59 km/h
Temperature: 11°C
Dew Point: 9°C
Humidity: 88%
2019/04/19 00:00 CWGT 190000Z AUTO 11027G32KT 11/09 RMK AO1 PK WND 11032/2335 SLP164 T01090093 58020
CWGB - Ballenas Island (Auto)
Distance from station: ENE 47km
Updated: 2019-04-18 17:00

 Wind from ESE
Wind: ESE 43 km/h
Temperature: 10°C
Wind Chill: 6°C
Dew Point: 9°C
Humidity: 94%
2019/04/19 00:00 CWGB 190000Z AUTO 12023KT 10/09 RMK AO1 8022 PK WND 12026/2357 SLP172 T01030094 50010
CYQQ - CFB Comox
Distance from station: N 55km
Updated: 2019-04-18 17:00
Light rain, Overcast
Light rain, Overcast
 Wind from SE
Wind: SE 37 km/h, Gust: 50 km/h
Temperature: 11°C
Dew Point: 9°C
Humidity: 88%
Barometer: 1016.9 hPa
Summary: Light rain
Clouds: Overcast
Visibility: 19 km
Cloud details: Few Clouds 488 m
Mostly cloudy 914 m
Overcast 1219 m
2019/04/19 00:00 CYQQ 190000Z 14020G27KT 12SM -RA FEW016 BKN030 OVC040 11/09 A3003 RMK SC2SC4SC2 PCPN VRY LGT SLP171
 
CYPW - Powell River Airport
Distance from station: NNE 69km
Updated: 2019-04-18 17:13
Light rain, Overcast
Light rain, Overcast
 Wind from E
Wind: E 19 km/h, Gust: 31 km/h
Temperature: 10°C
Wind Chill: 7°C
Dew Point: 9°C
Humidity: 94%
Barometer: 1017.6 hPa
Summary: Light rain
Clouds: Overcast
Visibility: 24 km
Cloud details: Partly cloudy 244 m
Overcast 884 m
2019/04/19 00:13 CYPW 190013Z 10010G17KT 070V140 15SM -RA SCT008 OVC029 10/09 A3005 RMK ST4SC4 VIS N-E 3 LO CLD BR SLP179
CYCD - Nanaimo Airport
Distance from station: ESE 70km
Updated: 2019-04-18 17:00
Light rain, Showers, Mist, Overcast
Light rain, Showers, Mist, Overcast
 Wind from E
Wind: E 13 km/h
Temperature: 11°C
Dew Point: 10°C
Humidity: 94%
Barometer: 1018.3 hPa
Summary: Light rain, Showers, Mist
Clouds: Overcast
Visibility: 5 km
Cloud details: Overcast 122 m
2019/04/19 00:00 CYCD 190000Z 09007KT 040V110 3SM -SHRA BR OVC004 11/10 A3007 RMK CU8 CIG RAG SLP185
CYAZ - Tofino Airport
Distance from station: WSW 73km
Updated: 2019-04-18 17:39
Light drizzle, Mist, Overcast
Light drizzle, Mist, Overcast
 Wind from SSE
Wind: SSE 15 km/h
Temperature: 10°C
Wind Chill: 8°C
Dew Point: 10°C
Humidity: 100%
Barometer: 1017.6 hPa
Summary: Light drizzle, Mist
Clouds: Overcast
Visibility: 0.8 km
Cloud details: Overcast 61 m
2019/04/19 00:39 CYAZ 190039Z 15008KT 1/2SM -DZ BR OVC002 10/10 A3005 RMK FG2ST6 SLP178
 
CWEL - Entrance Island (Auto)
Distance from station: E 73km
Updated: 2019-04-18 17:00

 Wind from SSE
Wind: SSE 28 km/h
Temperature: 11°C
Dew Point: 9°C
Humidity: 88%
2019/04/19 00:00 CWEL 190000Z AUTO 15015KT 11/09 RMK AO1 8025 PK WND 16020/2341 SLP178 T01060094 50006
CYBL - Campbell River Airport
Distance from station: NNW 88km
Updated: 2019-04-18 17:38
Light rain, Mist, Overcast
Light rain, Mist, Overcast
 Wind from E
Wind: E 9 km/h
Temperature: 10°C
Wind Chill: 9°C
Dew Point: 9°C
Humidity: 94%
Barometer: 1017.3 hPa
Summary: Light rain, Mist
Clouds: Overcast
Visibility: 3 km
Cloud details: Mostly cloudy 152 m
Overcast 244 m
2019/04/19 00:38 CYBL 190038Z 10005KT 2SM -RA BR BKN005 OVC008 10/09 A3004 RMK SF6SF2 SLP175
CWKH - Malahat Highway (Auto)
Distance from station: SE 116km
Updated: 2019-04-18 17:00

 
Temperature: 10°C
Dew Point: 10°C
Humidity: 100%
2019/04/19 00:00 CWKH 190000Z AUTO 10/10 RMK AO1 2PAST HR 6018 SLP178 P0001 T00960095 50002
 
CYVR - Vancouver Intl Airport
Distance from station: E 118km
Updated: 2019-04-18 17:16
Overcast
Overcast
 Wind from ENE
Wind: ENE 19 km/h
Temperature: 11°C
Dew Point: 10°C
Humidity: 94%
Barometer: 1018.6 hPa
Clouds: Overcast
Visibility: 19 km
Cloud details: Few Clouds 274 m
Partly cloudy 396 m
Partly cloudy 457 m
Overcast 671 m
2019/04/19 00:16 CYVR 190016Z 07010KT 12SM FEW009 SCT013 SCT015 OVC022 11/10 A3008 RMK SF1SF3SF1NS4 SF TR SLP189
CYYJ - Victoria Intl Airport
Distance from station: ESE 120km
Updated: 2019-04-18 17:00
Light rain, Overcast
Light rain, Overcast
 Wind from ESE
Wind: ESE 13 km/h
Temperature: 11°C
Dew Point: 10°C
Humidity: 94%
Barometer: 1018.6 hPa
Summary: Light rain
Clouds: Overcast
Visibility: 19 km
Cloud details: Few Clouds 152 m
Mostly cloudy 792 m
Overcast 1158 m
2019/04/19 00:00 CYYJ 190000Z 12007KT 12SM -RA FEW005 BKN026 OVC038 11/10 A3008 RMK SF1SC5SC3 SF TR SLP189
CWEB - Estevan Pt. (Auto)
Distance from station: W 129km
Updated: 2019-04-18 17:00

 Wind from SSE
Wind: SSE 7 km/h
Temperature: 10°C
Wind Chill: 9°C
Dew Point: 10°C
Humidity: 100%
2019/04/19 00:00 CWEB 190000Z AUTO 16004KT 10/10 RMK AO1 6PAST HR 8012 SLP176 P0006 T01040100 50139
 
CWQK - Race Rocks (Auto)
Distance from station: SE 138km
Updated: 2019-04-18 17:00

 Wind from W
Wind: W 15 km/h
Temperature: 10°C
Wind Chill: 8°C
Dew Point: 9°C
Humidity: 94%
2019/04/19 00:00 CWQK 190000Z AUTO 26008KT 10/09 RMK AO1 SLP189 T01020094 58018
CWAE - Whistler
Distance from station: NE 167km
Updated: 2019-04-17 18:00
NOT Current
Overcast
Overcast
 Wind from S
Wind: S 4 km/h
Temperature: 10°C
Dew Point: 3°C
Humidity: 62%
Barometer: 1023.7 hPa
Clouds: Overcast
Visibility: 24 km
Cloud details: Few Clouds 914 m
Overcast 1524 m
2019/04/18 01:00 CWAE 180100Z 18002KT 15SM FEW030 OVC050 10/03 A3023 RMK SC2SC6 LAST OBS/ NEXT 191300UTC WND ESTD SLP246
CYZT - Port Hardy Airport
Distance from station: NW 244km
Updated: 2019-04-18 17:30
Light rain, Mist, Overcast
Light rain, Mist, Overcast
 Wind from NNW
Wind: NNW 11 km/h
Temperature: 8°C
Wind Chill: 6°C
Dew Point: 7°C
Humidity: 93%
Barometer: 1016.9 hPa
Summary: Light rain, Mist
Clouds: Overcast
Visibility: 5 km
Cloud details: Few Clouds 61 m
Mostly cloudy 152 m
Overcast 732 m
2019/04/19 00:30 CYZT 190030Z 33006KT 3SM -RA BR FEW002 BKN005 OVC024 08/07 A3003 RMK SF2SF5SC1 SLP173
 
CWRU - Solander Isl (Auto)
Distance from station: WNW 247km
Updated: 2019-04-18 17:00

 Wind from N
Wind: N 22 km/h
Temperature: 8°C
Wind Chill: 4°C
2019/04/19 00:00 CWRU 190000Z AUTO 35012KT 08/ RMK AO1 8003 SLP175 T0077 50048